Time;durP1;ratioP1;P1;durP2;ratioP2;P2;SDS_P1;SDS_P2;PMS_P1;PMS_P2;Temp;Humidity;BMP_temperature;BMP_pressure;BME280_temperature;BME280_humidity;BME280_pressure;Samples;Min_cycle;Max_cycle;Signal;HPM_P1;HPM_P2
2022/10/02 14:19:57;;;;;;;8.20;1.17;;;;;;;;;;5034810;28;21392;-61
2022/10/02 14:22:39;;;;;;;4.50;1.30;;;;;;;;;;4977002;28;20154;-61
2022/10/02 14:25:22;;;;;;;7.18;1.30;;;;;;;;;;5007009;28;20426;-61
2022/10/02 14:28:03;;;;;;;7.30;1.10;;;;;;;;;;4998182;28;20544;-60
2022/10/02 14:30:43;;;;;;;8.05;1.80;;;;;;;;;;5011378;28;20046;-62
2022/10/02 14:33:34;;;;;;;9.82;1.10;;;;;;;;;;5008119;28;20106;-64
2022/10/02 14:36:39;;;;;;;9.50;1.08;;;;;;;;;;5003655;28;20418;-65
2022/10/02 14:39:13;;;;;;;5.40;1.10;;;;;;;;;;4981605;28;20112;-65
2022/10/02 14:41:57;;;;;;;8.60;1.40;;;;;;;;;;4997384;28;20038;-62
2022/10/02 14:44:34;;;;;;;7.57;1.15;;;;;;;;;;5008356;28;20121;-63
2022/10/02 14:47:10;;;;;;;8.25;1.20;;;;;;;;;;5000517;28;20048;-62
2022/10/02 14:49:50;;;;;;;7.85;1.10;;;;;;;;;;5009209;28;20048;-62
2022/10/02 14:52:24;;;;;;;4.18;1.05;;;;;;;;;;5009810;28;20026;-62
2022/10/02 14:55:14;;;;;;;9.25;1.42;;;;;;;;;;5010092;28;20045;-65
2022/10/02 14:57:46;;;;;;;5.93;0.98;;;;;;;;;;5010206;28;20138;-62
2022/10/02 15:00:14;;;;;;;3.10;0.70;;;;;;;;;;5008305;28;20123;-62
2022/10/02 15:03:09;;;;;;;7.50;1.00;;;;;;;;;;4997931;28;20048;-62
2022/10/02 15:06:00;;;;;;;3.22;0.90;;;;;;;;;;5008174;28;20046;-65
2022/10/02 15:08:30;;;;;;;4.45;1.08;;;;;;;;;;5000003;28;20037;-63
2022/10/02 15:10:56;;;;;;;11.85;1.75;;;;;;;;;;4997138;28;20477;-61
2022/10/02 15:13:23;;;;;;;10.98;1.10;;;;;;;;;;5010028;28;20042;-61
2022/10/02 15:17:53;;;;;;;8.95;1.25;;;;;;;;;;4992277;28;20084;-61
2022/10/02 15:18:57;;;;;;;10.65;1.35;;;;;;;;;;5009256;28;20053;-61
2022/10/02 15:21:25;;;;;;;11.88;1.52;;;;;;;;;;5008547;28;20576;-64
2022/10/02 15:23:55;;;;;;;8.50;1.00;;;;;;;;;;5009751;28;20042;-61
2022/10/02 15:26:32;;;;;;;15.63;1.60;;;;;;;;;;5009306;28;20064;-61
2022/10/02 15:29:00;;;;;;;21.35;1.60;;;;;;;;;;5005380;28;20410;-60
2022/10/02 15:31:45;;;;;;;10.20;1.65;;;;;;;;;;4996369;28;20122;-63
2022/10/02 15:34:25;;;;;;;14.50;2.78;;;;;;;;;;4996032;28;20085;-63
2022/10/02 15:37:17;;;;;;;13.15;1.60;;;;;;;;;;4996263;28;20034;-61
2022/10/02 15:40:07;;;;;;;10.73;1.60;;;;;;;;;;4989599;28;20038;-60
2022/10/02 15:43:02;;;;;;;9.23;1.38;;;;;;;;;;4996280;28;20048;-61
2022/10/02 15:45:48;;;;;;;9.43;1.38;;;;;;;;;;4995036;28;20034;-62
2022/10/02 15:48:33;;;;;;;8.80;1.40;;;;;;;;;;4986308;28;20129;-60
2022/10/02 15:51:31;;;;;;;9.70;1.20;;;;;;;;;;4994089;28;20061;-60
2022/10/02 15:54:02;;;;;;;7.22;1.00;;;;;;;;;;4994647;28;20466;-60
2022/10/02 15:56:37;;;;;;;8.90;1.55;;;;;;;;;;4996209;28;20046;-60
2022/10/02 15:59:40;;;;;;;8.88;1.13;;;;;;;;;;4991622;28;20040;-60
2022/10/02 16:02:05;;;;;;;13.35;1.33;;;;;;;;;;4995813;28;20541;-61
2022/10/02 16:04:54;;;;;;;5.10;1.27;;;;;;;;;;4995716;28;20031;-62
2022/10/02 16:07:34;;;;;;;11.02;2.10;;;;;;;;;;4996208;28;20046;-60
2022/10/02 16:10:21;;;;;;;8.65;1.52;;;;;;;;;;4995765;28;20029;-61
2022/10/02 16:12:55;;;;;;;8.07;1.63;;;;;;;;;;4995823;28;20038;-60
2022/10/02 16:15:43;;;;;;;8.13;1.40;;;;;;;;;;4995964;28;20030;-62
2022/10/02 16:18:20;;;;;;;8.45;1.17;;;;;;;;;;4994812;28;20053;-60
2022/10/02 16:21:00;;;;;;;11.00;1.42;;;;;;;;;;4995678;28;20034;-60
2022/10/02 16:23:53;;;;;;;9.25;1.35;;;;;;;;;;4989555;28;20073;-62
2022/10/02 16:26:56;;;;;;;6.97;1.42;;;;;;;;;;4985548;28;20022;-58
2022/10/02 16:29:33;;;;;;;9.25;1.67;;;;;;;;;;4992049;28;20042;-55
2022/10/02 16:32:16;;;;;;;9.45;1.13;;;;;;;;;;4982547;28;20035;-53
2022/10/02 16:34:47;;;;;;;16.17;1.70;;;;;;;;;;4994736;28;20121;-58
2022/10/02 16:37:16;;;;;;;10.63;1.50;;;;;;;;;;4994129;28;20038;-59
2022/10/02 16:39:53;;;;;;;5.47;1.00;;;;;;;;;;4986160;28;20130;-61
2022/10/02 16:42:33;;;;;;;4.28;0.90;;;;;;;;;;4991758;28;20038;-61
2022/10/02 16:45:02;;;;;;;10.20;0.95;;;;;;;;;;4978960;28;98447;-61
2022/10/02 16:47:59;;;;;;;7.55;1.00;;;;;;;;;;4974632;28;89000;-60
2022/10/02 16:50:47;;;;;;;11.13;1.20;;;;;;;;;;4967194;28;20185;-62
2022/10/02 16:54:49;;;;;;;4.03;1.38;;;;;;;;;;5068362;28;20368;-59
2022/10/02 16:57:21;;;;;;;3.80;1.20;;;;;;;;;;5062509;28;20035;-60
2022/10/02 17:00:01;;;;;;;10.02;1.23;;;;;;;;;;5064278;28;20494;-60
2022/10/02 17:04:38;;;;;;;4.40;0.85;;;;;;;;;;5044220;27;20163;-59
2022/10/02 17:07:22;;;;;;;4.45;1.42;;;;;;;;;;5033185;28;20489;-59
2022/10/02 17:09:50;;;;;;;2.97;1.17;;;;;;;;;;5030154;28;20025;-60
2022/10/02 17:12:28;;;;;;;3.60;1.08;;;;;;;;;;5025305;28;20033;-60
2022/10/02 17:14:59;;;;;;;3.33;0.85;;;;;;;;;;5034063;28;20026;-60
2022/10/02 17:17:25;;;;;;;4.47;1.15;;;;;;;;;;5032714;28;20053;-61
2022/10/02 17:20:02;;;;;;;4.93;1.90;;;;;;;;;;5028968;28;20037;-61
2022/10/02 17:22:38;;;;;;;6.50;1.00;;;;;;;;;;5029781;28;20033;-58
2022/10/02 17:25:16;;;;;;;2.67;0.75;;;;;;;;;;5027350;28;20030;-61
2022/10/02 17:27:53;;;;;;;122.35;6.63;;;;;;;;;;5031673;28;20389;-64
2022/10/02 17:30:23;;;;;;;6.28;1.05;;;;;;;;;;5032228;28;20084;-60
2022/10/02 17:32:49;;;;;;;9.82;1.17;;;;;;;;;;5030200;28;20033;-60
2022/10/02 17:35:34;;;;;;;4.85;1.10;;;;;;;;;;5029591;28;20095;-60
2022/10/02 17:38:19;;;;;;;8.55;1.20;;;;;;;;;;5032189;28;20555;-59
2022/10/02 17:40:44;;;;;;;3.83;0.93;;;;;;;;;;5035911;28;20083;-60
2022/10/02 17:43:18;;;;;;;8.57;1.30;;;;;;;;;;5029596;28;20029;-59
2022/10/02 17:45:56;;;;;;;8.15;1.65;;;;;;;;;;5031489;28;20034;-60
2022/10/02 17:48:22;;;;;;;8.57;1.90;;;;;;;;;;5029958;28;20029;-70
2022/10/02 17:51:02;;;;;;;9.70;2.90;;;;;;;;;;5031003;28;20416;-59
2022/10/02 17:56:33;;;;;;;7.55;1.58;;;;;;;;;;5026065;28;20037;-58
2022/10/02 17:59:17;;;;;;;13.20;3.40;;;;;;;;;;5029545;28;20060;-58
2022/10/02 18:01:57;;;;;;;14.73;3.53;;;;;;;;;;5030755;28;20029;-58
2022/10/02 18:04:26;;;;;;;15.00;4.28;;;;;;;;;;5029382;28;20100;-53
2022/10/02 18:06:57;;;;;;;11.85;2.88;;;;;;;;;;5030579;28;20040;-53
2022/10/02 18:09:40;;;;;;;9.15;2.67;;;;;;;;;;5034173;28;20080;-57
2022/10/02 18:12:14;;;;;;;14.63;3.35;;;;;;;;;;5028340;28;20021;-59
2022/10/02 18:14:49;;;;;;;19.10;3.28;;;;;;;;;;5022428;28;20038;-60
2022/10/02 18:17:40;;;;;;;8.95;1.80;;;;;;;;;;5022520;28;20469;-59
2022/10/02 18:20:20;;;;;;;11.18;3.42;;;;;;;;;;5027137;28;20030;-59
2022/10/02 18:22:59;;;;;;;11.50;2.55;;;;;;;;;;5026839;28;20029;-59
2022/10/02 18:25:26;;;;;;;7.88;2.67;;;;;;;;;;5022858;28;20037;-60
2022/10/02 18:28:06;;;;;;;12.65;2.15;;;;;;;;;;5015751;28;20080;-59
2022/10/02 18:30:40;;;;;;;7.10;2.17;;;;;;;;;;5016590;28;20481;-58
2022/10/02 18:33:08;;;;;;;7.97;2.20;;;;;;;;;;5015355;28;20013;-53
2022/10/02 18:35:52;;;;;;;9.02;1.95;;;;;;;;;;5015106;28;20681;-54
2022/10/02 18:38:20;;;;;;;9.60;2.28;;;;;;;;;;5014126;28;20026;-56
2022/10/02 18:41:04;;;;;;;5.03;1.42;;;;;;;;;;5014119;28;20038;-55
2022/10/02 18:43:29;;;;;;;;;;;;;;;;;;5015277;28;20041;-52
2022/10/02 18:46:13;;;;;;;4.53;1.50;;;;;;;;;;5014063;28;19909;-54
2022/10/02 18:48:39;;;;;;;;;;;;;;;;;;5014782;28;20076;-53
2022/10/02 18:51:11;;;;;;;5.68;1.45;;;;;;;;;;5014512;28;19996;-56
2022/10/02 18:53:54;;;;;;;8.98;2.25;;;;;;;;;;5014503;28;20080;-56
2022/10/02 18:56:21;;;;;;;;;;;;;;;;;;5017622;28;20034;-57
2022/10/02 18:58:47;;;;;;;5.93;1.40;;;;;;;;;;5009639;28;20257;-54
2022/10/02 19:01:16;;;;;;;6.30;1.55;;;;;;;;;;5013869;28;20038;-52
2022/10/02 19:03:41;;;;;;;5.32;1.60;;;;;;;;;;5015053;28;20049;-54
2022/10/02 19:06:12;;;;;;;6.45;1.60;;;;;;;;;;5015738;28;20068;-54
2022/10/02 19:08:53;;;;;;;5.78;1.23;;;;;;;;;;5010533;28;20041;-51
2022/10/02 19:11:24;;;;;;;5.15;1.58;;;;;;;;;;5007466;28;20122;-51
2022/10/02 19:13:50;;;;;;;3.35;1.23;;;;;;;;;;5015848;28;20030;-50
2022/10/02 19:16:16;;;;;;;6.65;1.67;;;;;;;;;;5015255;28;20056;-61
2022/10/02 19:18:41;;;;;;;6.47;1.60;;;;;;;;;;5013936;28;20152;-49
2022/10/02 19:21:08;;;;;;;6.53;1.50;;;;;;;;;;5019188;28;20112;-50
2022/10/02 19:23:36;;;;;;;5.35;2.15;;;;;;;;;;5018203;28;20053;-55
2022/10/02 19:26:04;;;;;;;6.40;1.50;;;;;;;;;;5020141;28;20057;-55
2022/10/02 19:28:30;;;;;;;6.18;1.50;;;;;;;;;;5013897;28;20564;-55
2022/10/02 19:31:01;;;;;;;4.03;1.23;;;;;;;;;;5015983;28;20046;-53
2022/10/02 19:33:56;;;;;;;3.55;1.25;;;;;;;;;;5018925;28;20103;-52
2022/10/02 19:36:23;;;;;;;6.10;1.60;;;;;;;;;;5004390;28;20038;-55
2022/10/02 19:38:51;;;;;;;4.00;1.40;;;;;;;;;;5014146;28;20429;-55
2022/10/02 19:41:17;;;;;;;5.30;1.33;;;;;;;;;;5013849;28;20033;-54
2022/10/02 19:43:45;;;;;;;3.10;1.33;;;;;;;;;;5019809;28;20513;-54
2022/10/02 19:46:11;;;;;;;6.72;1.65;;;;;;;;;;5014421;28;20033;-55
2022/10/02 19:48:36;;;;;;;4.50;1.25;;;;;;;;;;5006516;28;20034;-60
2022/10/02 19:51:03;;;;;;;5.78;1.73;;;;;;;;;;5010371;28;20448;-57
2022/10/02 19:53:34;;;;;;;10.40;1.45;;;;;;;;;;5022702;28;20029;-57
2022/10/02 19:56:02;;;;;;;5.03;1.35;;;;;;;;;;5012328;28;20043;-57
2022/10/02 19:58:32;;;;;;;2.78;1.17;;;;;;;;;;5010605;28;20382;-57
2022/10/02 20:00:57;;;;;;;6.10;1.35;;;;;;;;;;5011044;28;20041;-57
2022/10/02 20:03:23;;;;;;;4.53;1.08;;;;;;;;;;5011777;28;20046;-59
2022/10/02 20:05:54;;;;;;;2.80;1.10;;;;;;;;;;5010400;28;20020;-58
2022/10/02 20:08:21;;;;;;;5.18;1.17;;;;;;;;;;5009531;28;20417;-60
2022/10/02 20:10:55;;;;;;;3.17;1.30;;;;;;;;;;5003061;28;20558;-59
2022/10/02 20:13:25;;;;;;;6.63;1.38;;;;;;;;;;5010862;28;20088;-59
2022/10/02 20:18:40;;;;;;;5.07;1.25;;;;;;;;;;5002428;28;20121;-57
2022/10/02 20:21:10;;;;;;;4.85;1.10;;;;;;;;;;5011201;28;20448;-58
2022/10/02 20:23:35;;;;;;;3.53;1.30;;;;;;;;;;5009869;28;20037;-58
2022/10/02 20:26:07;;;;;;;5.28;1.40;;;;;;;;;;5010683;28;20022;-58
2022/10/02 20:28:41;;;;;;;4.63;1.45;;;;;;;;;;5010574;28;20092;-57
2022/10/02 20:31:12;;;;;;;3.70;1.42;;;;;;;;;;5010415;28;20034;-59
2022/10/02 20:33:49;;;;;;;2.58;1.20;;;;;;;;;;5010207;28;20040;-59
2022/10/02 20:36:16;;;;;;;6.93;1.40;;;;;;;;;;5005116;28;20054;-60
2022/10/02 20:38:41;;;;;;;3.88;1.05;;;;;;;;;;5012031;28;20068;-60
2022/10/02 20:41:10;;;;;;;4.32;1.50;;;;;;;;;;5013116;28;20046;-60
2022/10/02 20:43:39;;;;;;;4.47;1.30;;;;;;;;;;5016623;28;20046;-60
2022/10/02 20:46:16;;;;;;;4.63;1.27;;;;;;;;;;5010082;28;20029;-59
2022/10/02 20:48:58;;;;;;;2.72;1.35;;;;;;;;;;5010536;28;20318;-59
2022/10/02 20:51:36;;;;;;;4.68;1.33;;;;;;;;;;5006120;28;20030;-58
2022/10/02 20:54:17;;;;;;;3.78;1.20;;;;;;;;;;5000400;28;20381;-59
2022/10/02 20:56:52;;;;;;;2.70;1.20;;;;;;;;;;5010530;28;20124;-58
2022/10/02 20:59:20;;;;;;;4.53;1.30;;;;;;;;;;5009547;28;20061;-57
2022/10/02 21:02:04;;;;;;;2.13;0.90;;;;;;;;;;5010019;28;20097;-59
2022/10/02 21:04:29;;;;;;;;;;;;;;;;;;5013735;28;20045;-56
2022/10/02 21:07:17;;;;;;;4.70;1.05;;;;;;;;;;5011405;28;19910;-54
2022/10/02 21:10:09;;;;;;;2.50;1.15;;;;;;;;;;5007248;28;20033;-56
2022/10/02 21:13:04;;;;;;;2.65;1.00;;;;;;;;;;5012339;28;20078;-59
2022/10/02 21:15:50;;;;;;;2.65;1.13;;;;;;;;;;5004403;28;20046;-61
2022/10/02 21:18:34;;;;;;;2.50;1.10;;;;;;;;;;5010723;28;20037;-63
2022/10/02 21:21:23;;;;;;;2.78;1.30;;;;;;;;;;5012258;28;20033;-62
2022/10/02 21:24:12;;;;;;;3.55;1.50;;;;;;;;;;5010671;28;20034;-61
2022/10/02 21:26:44;;;;;;;3.45;1.38;;;;;;;;;;5012966;28;20037;-61
2022/10/02 21:29:22;;;;;;;8.80;1.45;;;;;;;;;;5010141;28;20026;-61
2022/10/02 21:31:51;;;;;;;3.08;1.30;;;;;;;;;;5014452;28;20096;-60
2022/10/02 21:34:22;;;;;;;3.80;1.30;;;;;;;;;;5014447;28;20022;-57
2022/10/02 21:36:47;;;;;;;3.90;1.45;;;;;;;;;;5011813;28;20050;-57
2022/10/02 21:39:25;;;;;;;3.17;1.25;;;;;;;;;;5019395;28;20065;-56
2022/10/02 21:41:53;;;;;;;2.08;1.00;;;;;;;;;;5018482;28;20038;-56
2022/10/02 21:44:19;;;;;;;3.15;1.40;;;;;;;;;;5014600;28;20048;-56
2022/10/02 21:46:44;;;;;;;2.45;1.10;;;;;;;;;;5010361;28;20026;-56
2022/10/02 21:49:21;;;;;;;3.40;1.45;;;;;;;;;;5012224;28;20092;-56
2022/10/02 21:52:05;;;;;;;3.33;1.33;;;;;;;;;;5017836;28;20034;-56
2022/10/02 21:54:43;;;;;;;3.78;1.30;;;;;;;;;;5016963;28;20029;-55
2022/10/02 21:57:27;;;;;;;3.08;1.30;;;;;;;;;;5023168;28;20029;-56
2022/10/02 21:59:52;;;;;;;;;;;;;;;;;;5018009;28;20083;-57
2022/10/02 22:02:18;;;;;;;3.40;1.35;;;;;;;;;;5017407;28;20008;-56
2022/10/02 22:04:43;;;;;;;4.50;1.52;;;;;;;;;;5016369;28;20045;-56
2022/10/02 22:07:11;;;;;;;5.10;1.35;;;;;;;;;;5016135;28;20045;-56
2022/10/02 22:09:36;;;;;;;3.58;1.42;;;;;;;;;;5015964;28;20948;-56
2022/10/02 22:12:08;;;;;;;2.25;1.15;;;;;;;;;;5016254;28;20034;-57
2022/10/02 22:14:53;;;;;;;3.03;1.38;;;;;;;;;;5016325;28;20034;-56
2022/10/02 22:17:48;;;;;;;4.20;1.50;;;;;;;;;;5015312;28;20538;-57
2022/10/02 22:20:16;;;;;;;2.65;1.25;;;;;;;;;;5006721;28;20492;-56
2022/10/02 22:22:45;;;;;;;2.90;1.25;;;;;;;;;;5016029;28;20121;-55
2022/10/02 22:25:16;;;;;;;3.35;1.35;;;;;;;;;;5018134;28;20038;-57
2022/10/02 22:27:51;;;;;;;3.10;1.50;;;;;;;;;;5017648;28;20382;-56
2022/10/02 22:30:24;;;;;;;1.95;1.10;;;;;;;;;;5008844;28;20440;-57
2022/10/02 22:33:18;;;;;;;2.35;1.08;;;;;;;;;;5015902;28;20448;-57
2022/10/02 22:36:00;;;;;;;3.00;1.35;;;;;;;;;;5012026;28;20034;-56
2022/10/02 22:38:30;;;;;;;3.70;1.50;;;;;;;;;;5016663;28;20045;-57
2022/10/02 22:41:01;;;;;;;3.05;1.38;;;;;;;;;;5019818;28;20030;-56
2022/10/02 22:43:31;;;;;;;2.83;1.10;;;;;;;;;;5010984;28;20037;-57
2022/10/02 22:46:19;;;;;;;2.85;1.27;;;;;;;;;;5017922;28;20370;-56
2022/10/02 22:48:50;;;;;;;3.30;1.40;;;;;;;;;;5010900;28;20060;-57
2022/10/02 22:51:26;;;;;;;3.40;1.52;;;;;;;;;;5010551;28;20038;-57
2022/10/02 22:54:02;;;;;;;2.97;1.33;;;;;;;;;;5007892;28;20045;-56
2022/10/02 22:56:38;;;;;;;2.17;1.20;;;;;;;;;;5017399;28;20052;-56
2022/10/02 22:59:23;;;;;;;3.60;1.10;;;;;;;;;;5022219;28;20041;-56
2022/10/02 23:01:52;;;;;;;3.58;1.40;;;;;;;;;;5017406;28;20083;-56
2022/10/02 23:04:20;;;;;;;2.88;1.20;;;;;;;;;;5009138;28;20474;-56
2022/10/02 23:06:48;;;;;;;3.03;1.30;;;;;;;;;;5016421;28;20101;-56
2022/10/02 23:09:23;;;;;;;4.57;1.50;;;;;;;;;;5016431;28;20084;-56
2022/10/02 23:11:54;;;;;;;2.83;1.20;;;;;;;;;;5016148;28;20042;-56
2022/10/02 23:14:40;;;;;;;2.20;1.20;;;;;;;;;;5015880;28;20580;-56
2022/10/02 23:17:11;;;;;;;2.90;1.20;;;;;;;;;;5017094;28;20393;-56
2022/10/02 23:19:46;;;;;;;3.15;1.10;;;;;;;;;;5016099;28;20396;-56
2022/10/02 23:22:14;;;;;;;4.00;1.20;;;;;;;;;;5017510;28;20049;-56
2022/10/02 23:24:50;;;;;;;3.10;1.52;;;;;;;;;;5023547;28;20151;-57
2022/10/02 23:27:34;;;;;;;3.30;1.25;;;;;;;;;;5016439;28;20478;-56
2022/10/02 23:30:02;;;;;;;3.08;1.30;;;;;;;;;;5012564;28;20029;-56
2022/10/02 23:32:43;;;;;;;3.30;1.30;;;;;;;;;;5015015;28;20041;-56
2022/10/02 23:35:12;;;;;;;5.22;1.73;;;;;;;;;;5021274;28;20469;-56
2022/10/02 23:37:40;;;;;;;3.10;1.40;;;;;;;;;;5012383;28;20045;-55
2022/10/02 23:40:20;;;;;;;2.58;1.35;;;;;;;;;;5021782;28;20013;-55
2022/10/02 23:42:53;;;;;;;3.15;1.38;;;;;;;;;;5014589;28;20046;-57
2022/10/02 23:45:18;;;;;;;;;;;;;;;;;;5018031;28;20480;-56
2022/10/02 23:47:50;;;;;;;3.53;1.20;;;;;;;;;;5016367;28;20036;-56
2022/10/02 23:50:21;;;;;;;3.13;1.30;;;;;;;;;;5015455;28;20385;-56
2022/10/02 23:52:47;;;;;;;3.53;1.33;;;;;;;;;;5014392;28;20049;-56
2022/10/02 23:55:18;;;;;;;2.22;1.20;;;;;;;;;;5016690;28;20018;-56
2022/10/02 23:57:55;;;;;;;3.22;1.10;;;;;;;;;;5017195;28;20358;-56
